createdAt,value
2022-10-03T00:02:08.383Z,98841.13
2022-10-03T00:05:19.471Z,98850.53
2022-10-03T00:08:12.028Z,98857.44
2022-10-03T00:11:03.029Z,98854.75
2022-10-03T00:13:46.399Z,98860.53
2022-10-03T00:16:23.553Z,98868.84
2022-10-03T00:19:11.791Z,98873.31
2022-10-03T00:22:04.499Z,98886.69
2022-10-03T00:24:55.421Z,98892.75
2022-10-03T00:27:36.328Z,98888.47
2022-10-03T00:30:19.736Z,98891.13
2022-10-03T00:33:14.927Z,98902.06
2022-10-03T00:36:05.751Z,98897.13
2022-10-03T00:39:25.457Z,98899.31
2022-10-03T00:42:44.348Z,98896.19
2022-10-03T00:45:43.367Z,98911.03
2022-10-03T00:48:52.285Z,98908.19
2022-10-03T00:51:53.170Z,98904.75
2022-10-03T00:54:53.406Z,98912.78
2022-10-03T00:57:50.758Z,98916.91
2022-10-03T01:00:25.171Z,98913.25
2022-10-03T01:03:28.498Z,98911.19
2022-10-03T01:06:17.074Z,98910.53
2022-10-03T01:09:37.480Z,98914.34
2022-10-03T01:12:40.071Z,98912.81
2022-10-03T01:15:24.471Z,98915.34
2022-10-03T01:18:18.813Z,98919.59
2022-10-03T01:21:03.735Z,98911.63
2022-10-03T01:24:32.631Z,98915.88
2022-10-03T01:27:07.326Z,98914.06
2022-10-03T01:30:06.788Z,98903.97
2022-10-03T01:32:47.204Z,98911.28
2022-10-03T01:35:33.074Z,98917.00
2022-10-03T01:38:17.225Z,98908.31
2022-10-03T01:41:03.246Z,98911.94
2022-10-03T01:43:44.674Z,98909.22
2022-10-03T01:46:26.622Z,98915.34
2022-10-03T01:49:11.296Z,98919.16
2022-10-03T01:51:54.990Z,98921.03
2022-10-03T01:54:36.669Z,98929.63
2022-10-03T01:57:22.641Z,98933.13
2022-10-03T02:00:05.295Z,98930.75
2022-10-03T02:02:55.216Z,98945.78
2022-10-03T02:05:44.647Z,98942.75
2022-10-03T02:08:33.315Z,98948.53
2022-10-03T02:11:08.351Z,98954.31
2022-10-03T02:13:52.742Z,98957.84
2022-10-03T02:16:39.368Z,98961.53
2022-10-03T02:19:21.929Z,98957.84
2022-10-03T02:21:55.903Z,98960.06
2022-10-03T02:24:44.282Z,98966.56
2022-10-03T02:27:55.161Z,98965.44
2022-10-03T02:30:40.507Z,98966.69
2022-10-03T02:33:59.575Z,98959.63
2022-10-03T02:37:16.524Z,98965.59
2022-10-03T02:40:23.031Z,98956.38
2022-10-03T02:43:42.862Z,98957.97
2022-10-03T02:47:15.051Z,98968.56
2022-10-03T02:50:33.976Z,98972.81
2022-10-03T02:53:55.199Z,98969.47
2022-10-03T02:57:16.620Z,98960.78
2022-10-03T03:00:12.201Z,98960.69
2022-10-03T03:03:29.402Z,98968.47
2022-10-03T03:06:47.477Z,98964.31
2022-10-03T03:09:55.355Z,98955.88
2022-10-03T03:12:58.854Z,98958.25
2022-10-03T03:16:16.948Z,98954.00
2022-10-03T03:19:00.379Z,98957.97
2022-10-03T03:21:41.309Z,98944.28
2022-10-03T03:24:44.589Z,98950.50
2022-10-03T03:27:43.416Z,98948.94
2022-10-03T03:30:18.562Z,98952.28
2022-10-03T03:33:09.315Z,98949.06
2022-10-03T03:36:00.359Z,98950.81
2022-10-03T03:38:44.479Z,98950.38
2022-10-03T03:41:51.291Z,98955.06
2022-10-03T03:45:00.921Z,98938.53
2022-10-03T03:48:05.001Z,98943.84
2022-10-03T03:50:57.824Z,98939.56
2022-10-03T03:53:59.757Z,98946.75
2022-10-03T03:57:05.332Z,98948.94
2022-10-03T04:00:00.164Z,98955.59
2022-10-03T04:03:00.309Z,98946.50
2022-10-03T04:05:55.736Z,98956.50
2022-10-03T04:08:49.939Z,98957.75
2022-10-03T04:11:32.153Z,98968.28
2022-10-03T04:14:52.223Z,98970.16
2022-10-03T04:18:05.152Z,98970.13
2022-10-03T04:21:18.172Z,98975.53
2022-10-03T04:24:11.404Z,98966.72
2022-10-03T04:27:01.464Z,98970.03
2022-10-03T04:29:56.946Z,98964.66
2022-10-03T04:32:49.103Z,98965.25
2022-10-03T04:35:48.482Z,98972.56
2022-10-03T04:38:43.167Z,98975.28
2022-10-03T04:41:29.280Z,98968.69
2022-10-03T04:44:14.789Z,98981.41
2022-10-03T04:46:58.914Z,98980.16
2022-10-03T04:49:41.773Z,98974.03
2022-10-03T04:52:25.303Z,98981.78
2022-10-03T04:55:10.185Z,98976.63
2022-10-03T04:57:51.488Z,98979.47
2022-10-03T05:00:28.438Z,98981.41
2022-10-03T05:03:10.269Z,98988.56
2022-10-03T05:05:58.230Z,98985.59
2022-10-03T05:08:51.655Z,98985.44
2022-10-03T05:11:47.551Z,98986.28
2022-10-03T05:14:31.227Z,98989.09
2022-10-03T05:17:13.292Z,98993.72
2022-10-03T05:20:07.359Z,98994.84
2022-10-03T05:22:53.210Z,99000.28
2022-10-03T05:25:46.405Z,98995.88
2022-10-03T05:28:35.945Z,98994.59
2022-10-03T05:31:26.122Z,98992.56
2022-10-03T05:34:11.344Z,99003.22
2022-10-03T05:37:12.141Z,99003.53
2022-10-03T05:39:56.344Z,99010.53
2022-10-03T05:43:12.196Z,99008.66
2022-10-03T05:45:55.887Z,99008.97
2022-10-03T05:48:45.469Z,99011.69
2022-10-03T05:51:54.726Z,99017.59
2022-10-03T05:55:04.437Z,99022.50
2022-10-03T05:58:20.199Z,99026.50
2022-10-03T06:01:36.574Z,99031.44
2022-10-03T06:04:53.574Z,99035.38
2022-10-03T06:07:34.141Z,99047.44
2022-10-03T06:10:51.071Z,99048.38
2022-10-03T06:13:40.921Z,99053.03
2022-10-03T06:16:35.188Z,99051.59
2022-10-03T06:19:28.915Z,99050.78
2022-10-03T06:23:05.718Z,99056.31
2022-10-03T06:26:30.059Z,99054.22
2022-10-03T06:29:46.390Z,99055.66
2022-10-03T06:33:09.085Z,99058.88
2022-10-03T06:36:20.010Z,99059.00
2022-10-03T06:39:36.032Z,99064.84
2022-10-03T06:42:51.859Z,99076.47
2022-10-03T06:46:16.769Z,99078.16
2022-10-03T06:49:24.588Z,99080.22
2022-10-03T06:52:38.223Z,99077.97
2022-10-03T06:56:08.217Z,99077.13
2022-10-03T06:59:16.858Z,99075.56
2022-10-03T07:02:25.276Z,99087.13
2022-10-03T07:05:54.028Z,99086.66
2022-10-03T07:09:28.932Z,99087.44
2022-10-03T07:12:47.618Z,99090.22
2022-10-03T07:20:01.279Z,99102.34
2022-10-03T07:23:26.909Z,99105.47
2022-10-03T07:26:46.658Z,99101.25
2022-10-03T07:29:30.848Z,99100.66
2022-10-03T07:32:40.042Z,99104.13
2022-10-03T07:36:03.135Z,99114.97
2022-10-03T07:39:12.409Z,99120.38
2022-10-03T07:42:03.498Z,99118.50
2022-10-03T07:45:34.486Z,99120.59
2022-10-03T07:48:55.020Z,99119.84
2022-10-03T07:51:45.577Z,99115.63
2022-10-03T07:54:49.953Z,99121.22
2022-10-03T07:58:05.294Z,99119.38
2022-10-03T08:00:57.371Z,99127.34
2022-10-03T08:04:16.594Z,99125.28
2022-10-03T08:06:57.559Z,99126.63
2022-10-03T08:10:04.660Z,99127.28
2022-10-03T08:13:07.258Z,99129.47
2022-10-03T08:16:12.166Z,99136.91
2022-10-03T08:19:13.022Z,99140.31
2022-10-03T08:22:02.282Z,99150.97
2022-10-03T08:25:09.188Z,99144.88
2022-10-03T08:28:02.743Z,99154.16
2022-10-03T08:30:56.426Z,99144.84
2022-10-03T08:34:01.861Z,99147.09
2022-10-03T08:37:22.819Z,99148.75
2022-10-03T08:40:38.101Z,99144.78
2022-10-03T08:43:55.080Z,99150.41
2022-10-03T08:47:05.109Z,99159.44
2022-10-03T08:50:30.748Z,99159.81
2022-10-03T08:53:54.066Z,99155.28
2022-10-03T08:56:38.576Z,99148.56
2022-10-03T09:00:05.666Z,99153.13
2022-10-03T09:03:36.869Z,99157.47
2022-10-03T09:10:38.009Z,99143.72
2022-10-03T09:13:41.020Z,99142.34
2022-10-03T09:16:41.393Z,99139.31
2022-10-03T09:20:10.972Z,99146.44
2022-10-03T09:23:39.889Z,99147.31
2022-10-03T09:26:51.903Z,99137.25
2022-10-03T09:29:58.267Z,99139.09
2022-10-03T09:33:27.514Z,99141.63
2022-10-03T09:36:34.068Z,99140.03
2022-10-03T09:39:52.005Z,99135.31
2022-10-03T09:43:14.988Z,99130.06
2022-10-03T09:46:26.887Z,99128.63
2022-10-03T09:49:51.033Z,99132.19
2022-10-03T09:52:56.945Z,99126.78
2022-10-03T09:55:52.639Z,99130.91
2022-10-03T09:59:14.065Z,99130.66
2022-10-03T10:01:54.781Z,99126.16
2022-10-03T10:04:58.779Z,99125.56
2022-10-03T10:08:21.655Z,99125.78
2022-10-03T10:11:24.846Z,99132.59
2022-10-03T10:14:29.193Z,99127.63
2022-10-03T10:17:54.913Z,99129.69
2022-10-03T10:21:13.004Z,99134.38
2022-10-03T10:24:03.669Z,99130.31
2022-10-03T10:27:23.227Z,99136.56
2022-10-03T10:30:24.162Z,99124.16
2022-10-03T10:33:58.938Z,99136.84
2022-10-03T10:37:25.844Z,99129.38
2022-10-03T10:40:52.536Z,99127.66
2022-10-03T10:44:11.449Z,99122.09
2022-10-03T10:47:48.997Z,99128.84
2022-10-03T10:51:01.582Z,99128.06
2022-10-03T10:54:19.412Z,99123.03
2022-10-03T10:57:19.463Z,99122.09
2022-10-03T11:00:24.119Z,99121.06
2022-10-03T11:03:57.056Z,99121.41
2022-10-03T11:07:07.112Z,99125.06
2022-10-03T11:10:26.089Z,99121.00
2022-10-03T11:14:00.998Z,99110.41
2022-10-03T11:17:37.738Z,99111.00
2022-10-03T11:21:07.666Z,99108.38
2022-10-03T11:24:25.929Z,99096.44
2022-10-03T11:27:50.184Z,99103.34
2022-10-03T11:30:46.301Z,99101.91
2022-10-03T11:34:13.165Z,99089.44
2022-10-03T11:37:26.045Z,99093.34
2022-10-03T11:40:16.931Z,99089.25
2022-10-03T11:43:03.675Z,99097.44
2022-10-03T11:45:43.054Z,99101.75
2022-10-03T11:48:40.068Z,99103.34
2022-10-03T11:51:20.057Z,99098.84
2022-10-03T11:54:19.238Z,99091.09
2022-10-03T11:56:53.870Z,99093.22
2022-10-03T11:59:47.724Z,99091.84
2022-10-03T12:02:40.740Z,99092.13
2022-10-03T12:05:25.647Z,99090.53
2022-10-03T12:08:36.754Z,99084.53
2022-10-03T12:11:17.098Z,99101.28
2022-10-03T12:14:10.951Z,99094.75
2022-10-03T12:17:05.916Z,99094.03
2022-10-03T12:19:50.036Z,99091.16
2022-10-03T12:22:43.684Z,99089.22
2022-10-03T12:25:25.921Z,99090.69
2022-10-03T12:28:16.333Z,99088.88
2022-10-03T12:30:56.904Z,99080.47
2022-10-03T12:33:49.865Z,99068.19
2022-10-03T12:36:28.351Z,99064.09
2022-10-03T12:39:24.528Z,99061.09
2022-10-03T12:42:26.864Z,99053.31
2022-10-03T12:45:05.104Z,99061.56
2022-10-03T12:47:57.499Z,99060.50
2022-10-03T12:50:43.289Z,99067.44
2022-10-03T12:53:41.826Z,99061.28
2022-10-03T12:56:28.432Z,99058.16
2022-10-03T12:59:22.810Z,99043.25
2022-10-03T13:02:26.185Z,99035.88
2022-10-03T13:05:27.845Z,99046.09
2022-10-03T13:08:06.839Z,99030.59
2022-10-03T13:10:45.751Z,99036.63
2022-10-03T13:13:32.087Z,99035.53
2022-10-03T13:16:32.814Z,99034.88
2022-10-03T13:19:12.670Z,99039.94
2022-10-03T13:22:08.356Z,99032.94
2022-10-03T13:24:52.597Z,99032.31
2022-10-03T13:27:39.666Z,99027.63
2022-10-03T13:30:23.214Z,99027.50
2022-10-03T13:33:04.332Z,99021.69
2022-10-03T13:35:56.045Z,99025.53
2022-10-03T13:39:08.128Z,99019.44
2022-10-03T13:42:10.512Z,99016.69
2022-10-03T13:44:44.769Z,99009.28
2022-10-03T13:47:31.274Z,99016.28
2022-10-03T13:50:10.966Z,99024.22
2022-10-03T13:52:48.034Z,99021.69
2022-10-03T13:55:34.238Z,99022.63
2022-10-03T13:58:39.823Z,99014.53
2022-10-03T14:01:41.842Z,99015.09
2022-10-03T14:04:43.749Z,99010.72
2022-10-03T14:07:26.913Z,99011.88
2022-10-03T14:10:26.497Z,99006.38
2022-10-03T14:13:22.895Z,99007.81
2022-10-03T14:16:01.664Z,99002.91
2022-10-03T14:18:50.807Z,98992.81
2022-10-03T14:21:47.828Z,99008.63
2022-10-03T14:24:43.039Z,99000.19
2022-10-03T14:27:47.219Z,98990.84
2022-10-03T14:30:22.329Z,98993.06
2022-10-03T14:33:17.759Z,98994.81
2022-10-03T14:36:03.940Z,98994.13
2022-10-03T14:39:07.370Z,99000.16
2022-10-03T14:41:52.271Z,98996.66
2022-10-03T14:44:26.983Z,98989.22
2022-10-03T14:47:05.080Z,98982.66
2022-10-03T14:49:55.043Z,98989.03
2022-10-03T14:52:37.094Z,98981.84
2022-10-03T14:55:17.909Z,98984.84
2022-10-03T14:58:10.431Z,98982.13
2022-10-03T15:00:46.833Z,98983.50
2022-10-03T15:03:33.950Z,98988.28
2022-10-03T15:06:24.312Z,98984.66
2022-10-03T15:08:58.326Z,98974.34
2022-10-03T15:11:35.361Z,98977.84
2022-10-03T15:14:12.878Z,98977.09
2022-10-03T15:16:51.379Z,98974.41
2022-10-03T15:19:28.400Z,98976.47
2022-10-03T15:22:18.893Z,98971.84
2022-10-03T15:24:50.551Z,98969.88
2022-10-03T15:27:25.728Z,98972.22
2022-10-03T15:30:02.297Z,98966.41
2022-10-03T15:32:42.222Z,98974.00
2022-10-03T15:35:22.917Z,98972.44
2022-10-03T15:37:57.667Z,98967.84
2022-10-03T15:40:39.198Z,98957.81
2022-10-03T15:43:20.619Z,98966.81
2022-10-03T15:45:54.931Z,98962.00
2022-10-03T15:48:28.102Z,98968.88
2022-10-03T15:51:00.204Z,98962.78
2022-10-03T15:53:37.179Z,98951.75
2022-10-03T15:56:19.058Z,98958.19
2022-10-03T15:58:55.281Z,98957.53
2022-10-03T16:01:34.300Z,98960.91
2022-10-03T16:04:08.240Z,98965.84
2022-10-03T16:06:50.019Z,98963.22
2022-10-03T16:09:31.363Z,98964.47
2022-10-03T16:12:58.616Z,98957.38
2022-10-03T16:15:47.209Z,98960.16
2022-10-03T16:18:48.471Z,98958.56
2022-10-03T16:21:34.054Z,98958.56
2022-10-03T16:24:08.653Z,98963.19
2022-10-03T16:26:54.175Z,98967.00
2022-10-03T16:29:31.304Z,98964.66
2022-10-03T16:32:09.456Z,98960.56
2022-10-03T16:34:49.169Z,98955.41
2022-10-03T16:37:24.471Z,98956.88
2022-10-03T16:40:02.892Z,98959.50
2022-10-03T16:42:45.409Z,98961.31
2022-10-03T16:45:29.062Z,98960.88
2022-10-03T16:48:17.646Z,98957.44
2022-10-03T16:50:56.126Z,98954.50
2022-10-03T16:53:27.304Z,98950.72
2022-10-03T16:56:03.119Z,98953.47
2022-10-03T16:58:39.964Z,98958.19
2022-10-03T17:01:27.423Z,98957.31
2022-10-03T17:04:15.936Z,98955.94
2022-10-03T17:06:53.636Z,98967.59
2022-10-03T17:09:43.172Z,98959.28
2022-10-03T17:12:22.659Z,98972.47
2022-10-03T17:14:57.437Z,98982.97
2022-10-03T17:17:37.133Z,98976.22
2022-10-03T17:20:15.855Z,98973.41
2022-10-03T17:22:59.896Z,98967.13
2022-10-03T17:25:46.355Z,98967.19
2022-10-03T17:28:30.140Z,98960.56
2022-10-03T17:31:07.015Z,98956.72
2022-10-03T17:33:46.839Z,98961.56
2022-10-03T17:37:10.164Z,98951.91
2022-10-03T17:39:58.850Z,98959.72
2022-10-03T17:42:47.528Z,98955.91
2022-10-03T17:45:37.022Z,98959.09
2022-10-03T17:48:17.545Z,98946.69
2022-10-03T17:51:03.212Z,98954.34
2022-10-03T17:53:39.267Z,98953.25
2022-10-03T17:56:17.379Z,98959.75
2022-10-03T17:58:53.615Z,98949.25
2022-10-03T18:01:31.972Z,98947.06
2022-10-03T18:04:07.503Z,98947.97
2022-10-03T18:06:52.104Z,98949.59
2022-10-03T18:09:45.778Z,98948.97
2022-10-03T18:12:31.052Z,98939.91
2022-10-03T18:15:53.188Z,98944.38
2022-10-03T18:19:02.501Z,98937.53
2022-10-03T18:21:49.512Z,98937.53
2022-10-03T18:24:43.151Z,98928.31
2022-10-03T18:27:59.425Z,98925.13
2022-10-03T18:30:46.190Z,98928.63
2022-10-03T18:33:21.369Z,98920.66
2022-10-03T18:35:52.857Z,98919.06
2022-10-03T18:38:26.892Z,98927.28
2022-10-03T18:41:00.414Z,98925.03
2022-10-03T18:43:45.140Z,98925.34
2022-10-03T18:46:21.758Z,98923.91
2022-10-03T18:49:31.846Z,98924.56
2022-10-03T18:52:07.406Z,98930.78
2022-10-03T18:54:53.740Z,98921.59
2022-10-03T18:57:32.983Z,98926.03
2022-10-03T19:00:10.551Z,98922.97
2022-10-03T19:02:50.547Z,98923.38
2022-10-03T19:05:27.484Z,98918.44
2022-10-03T19:08:14.144Z,98924.34
2022-10-03T19:10:50.212Z,98918.28
2022-10-03T19:13:32.193Z,98919.06
2022-10-03T19:16:22.959Z,98919.88
2022-10-03T19:19:08.890Z,98927.94
2022-10-03T19:21:43.177Z,98923.13
2022-10-03T19:24:34.475Z,98926.34
2022-10-03T19:27:18.366Z,98936.41
2022-10-03T19:29:53.646Z,98937.75
2022-10-03T19:32:34.882Z,98929.13
2022-10-03T19:35:08.620Z,98942.56
2022-10-03T19:37:46.115Z,98942.50
2022-10-03T19:40:40.216Z,98936.69
2022-10-03T19:43:43.716Z,98931.31
2022-10-03T19:46:56.593Z,98941.28
2022-10-03T19:49:39.315Z,98941.16
2022-10-03T19:52:23.863Z,98942.25
2022-10-03T19:55:01.371Z,98944.25
2022-10-03T19:57:43.699Z,98940.81
2022-10-03T20:00:31.327Z,98937.56
2022-10-03T20:03:15.365Z,98938.44
2022-10-03T20:06:00.135Z,98930.34
2022-10-03T20:08:41.839Z,98926.50
2022-10-03T20:11:49.397Z,98928.81
2022-10-03T20:14:26.833Z,98921.66
2022-10-03T20:17:02.210Z,98928.03
2022-10-03T20:19:38.910Z,98919.41
2022-10-03T20:22:18.892Z,98931.16
2022-10-03T20:24:49.257Z,98929.84
2022-10-03T20:27:38.535Z,98924.47
2022-10-03T20:30:35.857Z,98917.81
2022-10-03T20:33:08.310Z,98914.78
2022-10-03T20:35:54.323Z,98911.44
2022-10-03T20:38:53.056Z,98919.00
2022-10-03T20:41:38.722Z,98907.84
2022-10-03T20:44:20.527Z,98920.66
2022-10-03T20:46:54.928Z,98917.47
2022-10-03T20:49:34.513Z,98919.13
2022-10-03T20:52:09.598Z,98911.59
2022-10-03T20:54:53.381Z,98906.81
2022-10-03T20:57:29.856Z,98901.31
2022-10-03T21:00:12.864Z,98900.00
2022-10-03T21:02:51.665Z,98909.03
2022-10-03T21:05:30.506Z,98913.03
2022-10-03T21:08:05.360Z,98911.66
2022-10-03T21:10:42.536Z,98909.25
2022-10-03T21:13:23.478Z,98909.25
2022-10-03T21:15:57.366Z,98916.06
2022-10-03T21:18:31.643Z,98917.59
2022-10-03T21:21:11.531Z,98894.94
2022-10-03T21:23:51.152Z,98905.06
2022-10-03T21:26:31.990Z,98908.84
2022-10-03T21:29:19.884Z,98904.88
2022-10-03T21:32:03.537Z,98903.13
2022-10-03T21:34:43.795Z,98908.25
2022-10-03T21:37:25.916Z,98896.94
2022-10-03T21:40:18.159Z,98889.59
2022-10-03T21:43:08.093Z,98884.81
2022-10-03T21:45:53.334Z,98885.31
2022-10-03T21:48:36.577Z,98884.09
2022-10-03T21:51:27.827Z,98871.69
2022-10-03T21:54:25.929Z,98879.38
2022-10-03T21:57:11.872Z,98878.19
2022-10-03T22:00:07.249Z,98874.69
2022-10-03T22:02:51.144Z,98880.44
2022-10-03T22:05:35.702Z,98868.94
2022-10-03T22:08:18.047Z,98864.44
2022-10-03T22:11:07.103Z,98864.56
2022-10-03T22:13:42.616Z,98866.88
2022-10-03T22:16:28.987Z,98871.16
2022-10-03T22:19:22.547Z,98865.44
2022-10-03T22:22:14.703Z,98868.94
2022-10-03T22:25:05.784Z,98862.94
2022-10-03T22:27:45.938Z,98846.03
2022-10-03T22:30:20.577Z,98854.28
2022-10-03T22:33:10.767Z,98858.03
2022-10-03T22:35:52.967Z,98850.44
2022-10-03T22:38:29.419Z,98855.50
2022-10-03T22:41:07.416Z,98848.28
2022-10-03T22:43:40.733Z,98836.06
2022-10-03T22:46:15.789Z,98838.75
2022-10-03T22:48:53.579Z,98844.88
2022-10-03T22:51:25.050Z,98847.81
2022-10-03T22:54:01.643Z,98843.59
2022-10-03T22:56:48.056Z,98842.06
2022-10-03T22:59:26.256Z,98848.44
2022-10-03T23:02:01.537Z,98845.25
2022-10-03T23:04:40.559Z,98840.25
2022-10-03T23:07:33.134Z,98833.06
2022-10-03T23:10:18.616Z,98834.41
2022-10-03T23:13:00.769Z,98829.34
2022-10-03T23:15:35.271Z,98834.53
2022-10-03T23:18:35.962Z,98822.16
2022-10-03T23:21:14.486Z,98822.94
2022-10-03T23:24:08.705Z,98832.00
2022-10-03T23:27:27.031Z,98829.47
2022-10-03T23:30:57.097Z,98835.06
2022-10-03T23:33:53.222Z,98824.03
2022-10-03T23:36:27.428Z,98820.88
2022-10-03T23:39:02.317Z,98830.81
2022-10-03T23:41:47.771Z,98826.84
2022-10-03T23:44:49.094Z,98826.47
2022-10-03T23:47:26.155Z,98819.53
2022-10-03T23:49:57.546Z,98815.97
2022-10-03T23:52:36.324Z,98819.41
2022-10-03T23:55:11.175Z,98811.19
2022-10-03T23:57:45.831Z,98807.72
